sensor_id;sensor_type;location;lat;lon;timestamp;pressure;altitude;pressure_sealevel;temperature;humidity
71996;BME280;59862;47.732;7.346;2022-09-09T00:04:28;97771.98;;;16.36;66.36
71996;BME280;59862;47.732;7.346;2022-09-09T00:07:15;97765.22;;;16.30;66.76
71996;BME280;59862;47.732;7.346;2022-09-09T00:13:36;97768.13;;;16.24;67.06
71996;BME280;59862;47.732;7.346;2022-09-09T00:16:10;97767.38;;;16.27;66.72
71996;BME280;59862;47.732;7.346;2022-09-09T00:20:41;97758.61;;;16.22;67.30
71996;BME280;59862;47.732;7.346;2022-09-09T00:23:17;97758.88;;;16.33;67.06
71996;BME280;59862;47.732;7.346;2022-09-09T00:28:52;97764.83;;;16.32;67.05
71996;BME280;59862;47.732;7.346;2022-09-09T00:31:30;97757.61;;;16.20;67.46
71996;BME280;59862;47.732;7.346;2022-09-09T00:33:57;97765.11;;;16.12;67.80
71996;BME280;59862;47.732;7.346;2022-09-09T00:36:26;97754.97;;;16.07;68.17
71996;BME280;59862;47.732;7.346;2022-09-09T00:39:00;97761.73;;;16.13;68.20
71996;BME280;59862;47.732;7.346;2022-09-09T00:41:50;97763.55;;;16.18;67.80
71996;BME280;59862;47.732;7.346;2022-09-09T00:44:31;97751.05;;;16.15;68.14
71996;BME280;59862;47.732;7.346;2022-09-09T00:53:39;97760.16;;;16.15;67.94
71996;BME280;59862;47.732;7.346;2022-09-09T00:56:20;97769.27;;;16.12;68.28
71996;BME280;59862;47.732;7.346;2022-09-09T00:59:16;97769.48;;;16.17;68.54
71996;BME280;59862;47.732;7.346;2022-09-09T01:01:41;97767.93;;;16.23;68.17
71996;BME280;59862;47.732;7.346;2022-09-09T01:04:13;97773.68;;;16.24;67.83
71996;BME280;59862;47.732;7.346;2022-09-09T01:06:41;97775.95;;;16.39;67.74
71996;BME280;59862;47.732;7.346;2022-09-09T01:12:23;97766.69;;;16.55;67.00
71996;BME280;59862;47.732;7.346;2022-09-09T01:17:28;97767.46;;;16.48;67.54
71996;BME280;59862;47.732;7.346;2022-09-09T01:20:08;97770.43;;;16.46;67.68
71996;BME280;59862;47.732;7.346;2022-09-09T01:28:01;97772.20;;;16.44;67.28
71996;BME280;59862;47.732;7.346;2022-09-09T01:30:26;97772.40;;;16.42;67.24
71996;BME280;59862;47.732;7.346;2022-09-09T01:32:56;97775.77;;;16.41;67.52
71996;BME280;59862;47.732;7.346;2022-09-09T01:35:45;97778.90;;;16.33;67.74
71996;BME280;59862;47.732;7.346;2022-09-09T01:38:12;97773.34;;;16.29;68.06
71996;BME280;59862;47.732;7.346;2022-09-09T01:40:41;97775.91;;;16.28;67.96
71996;BME280;59862;47.732;7.346;2022-09-09T01:43:09;97775.72;;;16.31;67.74
71996;BME280;59862;47.732;7.346;2022-09-09T01:45:38;97776.52;;;16.31;67.87
71996;BME280;59862;47.732;7.346;2022-09-09T01:48:07;97777.05;;;16.24;67.85
71996;BME280;59862;47.732;7.346;2022-09-09T01:50:34;97782.37;;;16.19;68.12
71996;BME280;59862;47.732;7.346;2022-09-09T01:53:03;97776.02;;;16.15;68.23
71996;BME280;59862;47.732;7.346;2022-09-09T02:02:10;97772.01;;;16.05;69.15
71996;BME280;59862;47.732;7.346;2022-09-09T02:04:40;97770.41;;;16.04;69.94
71996;BME280;59862;47.732;7.346;2022-09-09T02:07:29;97771.86;;;16.15;69.31
71996;BME280;59862;47.732;7.346;2022-09-09T02:10:05;97774.63;;;16.15;69.20
71996;BME280;59862;47.732;7.346;2022-09-09T02:12:31;97768.08;;;16.13;69.33
71996;BME280;59862;47.732;7.346;2022-09-09T02:15:05;97765.31;;;16.13;69.63
71996;BME280;59862;47.732;7.346;2022-09-09T02:17:35;97770.47;;;16.15;69.89
71996;BME280;59862;47.732;7.346;2022-09-09T02:20:06;97767.93;;;16.23;69.42
71996;BME280;59862;47.732;7.346;2022-09-09T02:22:36;97760.16;;;16.15;70.29
71996;BME280;59862;47.732;7.346;2022-09-09T02:25:08;97761.75;;;16.16;70.10
71996;BME280;59862;47.732;7.346;2022-09-09T02:27:37;97763.81;;;16.27;70.12
71996;BME280;59862;47.732;7.346;2022-09-09T02:30:05;97769.17;;;16.29;70.27
71996;BME280;59862;47.732;7.346;2022-09-09T02:32:34;97767.40;;;16.31;69.84
71996;BME280;59862;47.732;7.346;2022-09-09T02:35:09;97763.62;;;16.29;69.91
71996;BME280;59862;47.732;7.346;2022-09-09T02:37:39;97764.03;;;16.31;70.05
71996;BME280;59862;47.732;7.346;2022-09-09T02:40:10;97765.42;;;16.31;70.04
71996;BME280;59862;47.732;7.346;2022-09-09T02:42:42;97770.75;;;16.27;70.43
71996;BME280;59862;47.732;7.346;2022-09-09T02:45:12;97766.59;;;16.27;70.70
71996;BME280;59862;47.732;7.346;2022-09-09T02:53:09;97761.73;;;16.55;70.18
71996;BME280;59862;47.732;7.346;2022-09-09T02:55:41;97758.98;;;16.62;69.54
71996;BME280;59862;47.732;7.346;2022-09-09T02:58:13;97756.40;;;16.63;69.67
71996;BME280;59862;47.732;7.346;2022-09-09T03:00:45;97757.77;;;16.56;70.20
71996;BME280;59862;47.732;7.346;2022-09-09T03:03:13;97761.33;;;16.53;70.20
71996;BME280;59862;47.732;7.346;2022-09-09T03:05:43;97765.05;;;16.40;70.46
71996;BME280;59862;47.732;7.346;2022-09-09T03:08:12;97771.78;;;16.35;70.82
71996;BME280;59862;47.732;7.346;2022-09-09T03:10:39;97764.94;;;16.18;71.35
71996;BME280;59862;47.732;7.346;2022-09-09T03:13:07;97760.34;;;16.09;71.82
71996;BME280;59862;47.732;7.346;2022-09-09T03:15:35;97760.28;;;15.99;72.25
71996;BME280;59862;47.732;7.346;2022-09-09T03:18:03;97755.28;;;15.91;72.52
71996;BME280;59862;47.732;7.346;2022-09-09T03:20:31;97754.23;;;15.79;73.07
71996;BME280;59862;47.732;7.346;2022-09-09T03:23:00;97758.53;;;15.69;73.84
71996;BME280;59862;47.732;7.346;2022-09-09T03:25:29;97761.09;;;15.68;73.74
71996;BME280;59862;47.732;7.346;2022-09-09T03:27:56;97756.30;;;15.62;74.03
71996;BME280;59862;47.732;7.346;2022-09-09T03:30:25;97760.55;;;15.55;74.28
71996;BME280;59862;47.732;7.346;2022-09-09T03:32:54;97763.33;;;15.55;74.34
71996;BME280;59862;47.732;7.346;2022-09-09T03:35:23;97760.33;;;15.51;74.57
71996;BME280;59862;47.732;7.346;2022-09-09T03:37:50;97765.25;;;15.48;74.70
71996;BME280;59862;47.732;7.346;2022-09-09T03:40:18;97765.63;;;15.46;74.89
71996;BME280;59862;47.732;7.346;2022-09-09T03:42:46;97765.58;;;15.39;75.22
71996;BME280;59862;47.732;7.346;2022-09-09T03:45:15;97754.09;;;15.37;75.42
71996;BME280;59862;47.732;7.346;2022-09-09T03:47:43;97760.63;;;15.39;75.38
71996;BME280;59862;47.732;7.346;2022-09-09T03:50:10;97759.60;;;15.34;75.71
71996;BME280;59862;47.732;7.346;2022-09-09T03:52:39;97755.45;;;15.34;75.76
71996;BME280;59862;47.732;7.346;2022-09-09T03:55:09;97762.61;;;15.38;75.71
71996;BME280;59862;47.732;7.346;2022-09-09T03:57:36;97759.89;;;15.45;75.79
71996;BME280;59862;47.732;7.346;2022-09-09T04:00:05;97757.39;;;15.57;75.23
71996;BME280;59862;47.732;7.346;2022-09-09T04:02:33;97766.84;;;15.69;74.77
71996;BME280;59862;47.732;7.346;2022-09-09T04:05:00;97759.71;;;15.68;74.75
71996;BME280;59862;47.732;7.346;2022-09-09T04:07:28;97761.08;;;15.65;74.84
71996;BME280;59862;47.732;7.346;2022-09-09T04:09:55;97759.12;;;15.69;74.94
71996;BME280;59862;47.732;7.346;2022-09-09T04:12:23;97759.30;;;15.66;74.97
71996;BME280;59862;47.732;7.346;2022-09-09T04:14:50;97756.94;;;15.68;75.09
71996;BME280;59862;47.732;7.346;2022-09-09T04:17:18;97758.37;;;15.75;74.92
71996;BME280;59862;47.732;7.346;2022-09-09T04:19:46;97767.14;;;15.84;75.03
71996;BME280;59862;47.732;7.346;2022-09-09T04:22:13;97761.18;;;15.82;74.99
71996;BME280;59862;47.732;7.346;2022-09-09T04:24:41;97761.02;;;15.89;74.58
71996;BME280;59862;47.732;7.346;2022-09-09T04:27:08;97767.17;;;15.92;74.68
71996;BME280;59862;47.732;7.346;2022-09-09T04:29:36;97765.38;;;15.90;74.03
71996;BME280;59862;47.732;7.346;2022-09-09T04:32:03;97762.61;;;15.90;74.03
71996;BME280;59862;47.732;7.346;2022-09-09T04:34:31;97761.86;;;15.96;73.91
71996;BME280;59862;47.732;7.346;2022-09-09T04:36:59;97764.05;;;16.00;73.70
71996;BME280;59862;47.732;7.346;2022-09-09T04:39:27;97763.08;;;16.02;73.68
71996;BME280;59862;47.732;7.346;2022-09-09T04:41:55;97760.52;;;16.07;73.81
71996;BME280;59862;47.732;7.346;2022-09-09T04:44:22;97764.55;;;16.20;73.26
71996;BME280;59862;47.732;7.346;2022-09-09T04:46:49;97767.61;;;16.35;73.02
71996;BME280;59862;47.732;7.346;2022-09-09T04:49:17;97760.31;;;16.44;72.65
71996;BME280;59862;47.732;7.346;2022-09-09T04:51:44;97763.67;;;16.43;72.87
71996;BME280;59862;47.732;7.346;2022-09-09T04:54:13;97777.37;;;16.46;72.58
71996;BME280;59862;47.732;7.346;2022-09-09T04:56:41;97775.95;;;16.39;72.55
71996;BME280;59862;47.732;7.346;2022-09-09T04:59:09;97772.97;;;16.38;72.86
71996;BME280;59862;47.732;7.346;2022-09-09T05:01:37;97779.51;;;16.36;72.96
71996;BME280;59862;47.732;7.346;2022-09-09T05:04:04;97773.36;;;16.36;72.73
71996;BME280;59862;47.732;7.346;2022-09-09T05:06:31;97776.50;;;16.28;72.77
71996;BME280;59862;47.732;7.346;2022-09-09T05:08:59;97763.55;;;16.18;73.19
71996;BME280;59862;47.732;7.346;2022-09-09T05:11:29;97770.80;;;16.03;73.60
71996;BME280;59862;47.732;7.346;2022-09-09T05:13:58;97770.72;;;15.89;74.38
71996;BME280;59862;47.732;7.346;2022-09-09T05:16:26;97771.91;;;15.88;74.30
71996;BME280;59862;47.732;7.346;2022-09-09T05:18:53;97771.09;;;15.83;74.51
71996;BME280;59862;47.732;7.346;2022-09-09T05:21:22;97772.48;;;15.83;74.49
71996;BME280;59862;47.732;7.346;2022-09-09T05:23:52;97774.45;;;15.83;74.42
71996;BME280;59862;47.732;7.346;2022-09-09T05:26:22;97767.91;;;15.81;74.66
71996;BME280;59862;47.732;7.346;2022-09-09T05:28:50;97769.30;;;15.81;74.97
71996;BME280;59862;47.732;7.346;2022-09-09T05:31:19;97775.11;;;15.93;74.92
71996;BME280;59862;47.732;7.346;2022-09-09T05:33:47;97769.75;;;15.91;74.34
71996;BME280;59862;47.732;7.346;2022-09-09T05:36:21;97775.54;;;15.99;74.06
71996;BME280;59862;47.732;7.346;2022-09-09T05:38:49;97778.75;;;16.08;73.98
71996;BME280;59862;47.732;7.346;2022-09-09T05:41:17;97777.94;;;16.04;73.99
71996;BME280;59862;47.732;7.346;2022-09-09T05:43:46;97782.51;;;16.06;73.66
71996;BME280;59862;47.732;7.346;2022-09-09T05:46:18;97790.61;;;16.01;73.57
71996;BME280;59862;47.732;7.346;2022-09-09T05:48:47;97795.34;;;15.97;73.77
71996;BME280;59862;47.732;7.346;2022-09-09T05:51:18;97794.91;;;15.92;73.92
71996;BME280;59862;47.732;7.346;2022-09-09T05:53:48;97795.31;;;15.94;74.03
71996;BME280;59862;47.732;7.346;2022-09-09T05:56:23;97792.95;;;15.96;74.15
71996;BME280;59862;47.732;7.346;2022-09-09T05:58:55;97795.75;;;15.99;73.93
71996;BME280;59862;47.732;7.346;2022-09-09T06:01:25;97796.93;;;15.98;73.83
71996;BME280;59862;47.732;7.346;2022-09-09T06:03:54;97797.31;;;15.97;73.91
71996;BME280;59862;47.732;7.346;2022-09-09T06:06:30;97796.89;;;15.91;74.15
71996;BME280;59862;47.732;7.346;2022-09-09T06:08:54;97797.07;;;15.89;74.35
71996;BME280;59862;47.732;7.346;2022-09-09T06:11:26;97801.03;;;15.88;74.28
71996;BME280;59862;47.732;7.346;2022-09-09T06:13:54;97792.95;;;15.96;74.16
71996;BME280;59862;47.732;7.346;2022-09-09T06:16:23;97794.60;;;16.07;73.62
71996;BME280;59862;47.732;7.346;2022-09-09T06:18:56;97794.47;;;16.21;73.09
71996;BME280;59862;47.732;7.346;2022-09-09T06:21:31;97791.00;;;16.34;72.81
71996;BME280;59862;47.732;7.346;2022-09-09T06:23:54;97803.73;;;16.46;72.28
71996;BME280;59862;47.732;7.346;2022-09-09T06:26:23;97800.41;;;16.57;71.86
71996;BME280;59862;47.732;7.346;2022-09-09T06:28:53;97802.08;;;16.72;71.86
71996;BME280;59862;47.732;7.346;2022-09-09T06:31:24;97805.13;;;16.91;70.87
71996;BME280;59862;47.732;7.346;2022-09-09T06:33:53;97800.39;;;17.02;70.68
71996;BME280;59862;47.732;7.346;2022-09-09T06:36:23;97803.18;;;17.09;69.77
71996;BME280;59862;47.732;7.346;2022-09-09T06:38:51;97798.83;;;17.26;70.00
71996;BME280;59862;47.732;7.346;2022-09-09T06:41:20;97791.89;;;17.48;69.01
71996;BME280;59862;47.732;7.346;2022-09-09T06:43:49;97805.20;;;17.52;68.38
71996;BME280;59862;47.732;7.346;2022-09-09T06:46:26;97812.77;;;17.65;67.74
71996;BME280;59862;47.732;7.346;2022-09-09T06:48:49;97808.61;;;17.80;67.02
71996;BME280;59862;47.732;7.346;2022-09-09T06:51:19;97812.40;;;17.70;68.06
71996;BME280;59862;47.732;7.346;2022-09-09T06:53:55;97805.05;;;17.76;69.12
71996;BME280;59862;47.732;7.346;2022-09-09T06:56:27;97813.37;;;17.86;68.80
71996;BME280;59862;47.732;7.346;2022-09-09T06:58:57;97819.13;;;17.94;68.89
71996;BME280;59862;47.732;7.346;2022-09-09T07:01:33;97814.71;;;18.15;67.77
71996;BME280;59862;47.732;7.346;2022-09-09T07:04:02;97812.28;;;18.38;66.58
71996;BME280;59862;47.732;7.346;2022-09-09T07:06:33;97812.44;;;18.50;66.33
71996;BME280;59862;47.732;7.346;2022-09-09T07:09:03;97819.25;;;18.38;66.88
71996;BME280;59862;47.732;7.346;2022-09-09T07:11:33;97831.41;;;18.29;66.47
71996;BME280;59862;47.732;7.346;2022-09-09T07:14:01;97831.83;;;18.06;67.09
71996;BME280;59862;47.732;7.346;2022-09-09T07:16:29;97841.40;;;17.77;67.22
71996;BME280;59862;47.732;7.346;2022-09-09T07:18:58;97838.56;;;17.52;69.04
71996;BME280;59862;47.732;7.346;2022-09-09T07:21:28;97839.02;;;17.79;68.09
71996;BME280;59862;47.732;7.346;2022-09-09T07:23:57;97840.60;;;17.83;68.22
71996;BME280;59862;47.732;7.346;2022-09-09T07:26:27;97844.98;;;17.66;68.28
71996;BME280;59862;47.732;7.346;2022-09-09T07:28:55;97838.95;;;17.47;68.85
71996;BME280;59862;47.732;7.346;2022-09-09T07:34:11;97841.17;;;17.65;68.62
71996;BME280;59862;47.732;7.346;2022-09-09T07:36:40;97837.75;;;17.37;69.52
71996;BME280;59862;47.732;7.346;2022-09-09T07:39:10;97845.89;;;17.29;69.79
71996;BME280;59862;47.732;7.346;2022-09-09T07:41:43;97847.45;;;17.16;70.61
71996;BME280;59862;47.732;7.346;2022-09-09T07:44:20;97841.31;;;17.27;70.84
71996;BME280;59862;47.732;7.346;2022-09-09T07:46:45;97849.28;;;17.42;70.28
71996;BME280;59862;47.732;7.346;2022-09-09T07:49:13;97846.56;;;17.67;69.83
71996;BME280;59862;47.732;7.346;2022-09-09T07:51:43;97843.37;;;17.90;68.81
71996;BME280;59862;47.732;7.346;2022-09-09T07:54:13;97838.20;;;17.96;67.93
71996;BME280;59862;47.732;7.346;2022-09-09T07:56:42;97828.24;;;18.09;66.86
71996;BME280;59862;47.732;7.346;2022-09-09T07:59:10;97841.95;;;18.22;66.03
71996;BME280;59862;47.732;7.346;2022-09-09T08:01:41;97839.77;;;18.25;65.12
71996;BME280;59862;47.732;7.346;2022-09-09T08:04:17;97839.77;;;18.25;65.12
71996;BME280;59862;47.732;7.346;2022-09-09T08:06:47;97837.33;;;18.45;63.69
71996;BME280;59862;47.732;7.346;2022-09-09T08:09:15;97836.48;;;18.59;62.72
71996;BME280;59862;47.732;7.346;2022-09-09T08:11:44;97847.37;;;18.79;62.24
71996;BME280;59862;47.732;7.346;2022-09-09T08:14:12;97855.19;;;19.13;62.31
71996;BME280;59862;47.732;7.346;2022-09-09T08:16:43;97859.11;;;19.22;59.52
71996;BME280;59862;47.732;7.346;2022-09-09T08:19:11;97856.38;;;19.12;59.75
71996;BME280;59862;47.732;7.346;2022-09-09T08:21:40;97866.77;;;19.08;60.02
71996;BME280;59862;47.732;7.346;2022-09-09T08:24:09;97868.95;;;19.08;60.21
71996;BME280;59862;47.732;7.346;2022-09-09T08:26:40;97862.77;;;19.09;58.86
71996;BME280;59862;47.732;7.346;2022-09-09T08:29:12;97857.58;;;18.63;60.23
71996;BME280;59862;47.732;7.346;2022-09-09T08:31:46;97860.02;;;19.02;60.02
71996;BME280;59862;47.732;7.346;2022-09-09T08:34:14;97857.53;;;19.58;57.79
71996;BME280;59862;47.732;7.346;2022-09-09T08:36:44;97860.17;;;20.24;55.95
71996;BME280;59862;47.732;7.346;2022-09-09T08:39:14;97860.62;;;20.41;54.15
71996;BME280;59862;47.732;7.346;2022-09-09T08:44:50;97853.26;;;20.39;54.53
71996;BME280;59862;47.732;7.346;2022-09-09T08:47:22;97859.86;;;20.56;53.02
71996;BME280;59862;47.732;7.346;2022-09-09T08:50:22;97851.68;;;20.72;53.21
71996;BME280;59862;47.732;7.346;2022-09-09T08:53:05;97853.30;;;20.88;53.19
71996;BME280;59862;47.732;7.346;2022-09-09T08:58:14;97864.50;;;21.49;50.17
71996;BME280;59862;47.732;7.346;2022-09-09T09:00:57;97865.22;;;21.92;49.37
71996;BME280;59862;47.732;7.346;2022-09-09T09:03:34;97858.21;;;21.80;50.76
71996;BME280;59862;47.732;7.346;2022-09-09T09:06:18;97861.09;;;21.50;50.22
71996;BME280;59862;47.732;7.346;2022-09-09T09:09:02;97866.95;;;21.59;49.81
71996;BME280;59862;47.732;7.346;2022-09-09T09:11:44;97866.74;;;21.46;49.29
71996;BME280;59862;47.732;7.346;2022-09-09T09:14:19;97862.35;;;21.84;49.48
71996;BME280;59862;47.732;7.346;2022-09-09T09:16:48;97867.80;;;21.41;49.83
71996;BME280;59862;47.732;7.346;2022-09-09T09:19:16;97875.29;;;21.63;50.03
71996;BME280;59862;47.732;7.346;2022-09-09T09:24:52;97852.66;;;21.65;50.37
71996;BME280;59862;47.732;7.346;2022-09-09T09:27:31;97856.66;;;21.37;50.62
71996;BME280;59862;47.732;7.346;2022-09-09T09:30:13;97850.58;;;21.58;50.93
71996;BME280;59862;47.732;7.346;2022-09-09T09:32:47;97857.27;;;21.52;49.38
71996;BME280;59862;47.732;7.346;2022-09-09T09:35:13;97855.41;;;21.92;47.39
71996;BME280;59862;47.732;7.346;2022-09-09T09:37:41;97844.27;;;22.47;46.99
71996;BME280;59862;47.732;7.346;2022-09-09T09:40:18;97843.02;;;23.11;45.04
71996;BME280;59862;47.732;7.346;2022-09-09T09:42:57;97838.24;;;23.36;43.05
71996;BME280;59862;47.732;7.346;2022-09-09T09:48:04;97846.13;;;24.01;42.74
71996;BME280;59862;47.732;7.346;2022-09-09T09:50:33;97848.95;;;23.05;44.35
71996;BME280;59862;47.732;7.346;2022-09-09T09:53:03;97864.41;;;22.19;46.17
71996;BME280;59862;47.732;7.346;2022-09-09T09:55:34;97869.14;;;21.60;48.65
71996;BME280;59862;47.732;7.346;2022-09-09T09:58:13;97864.97;;;21.29;49.54
71996;BME280;59862;47.732;7.346;2022-09-09T10:00:36;97858.38;;;21.12;50.31
71996;BME280;59862;47.732;7.346;2022-09-09T10:03:13;97871.34;;;20.80;51.17
71996;BME280;59862;47.732;7.346;2022-09-09T10:05:35;97874.18;;;20.77;50.83
71996;BME280;59862;47.732;7.346;2022-09-09T10:08:10;97864.09;;;21.63;48.72
71996;BME280;59862;47.732;7.346;2022-09-09T10:13:55;97863.08;;;23.74;45.08
71996;BME280;59862;47.732;7.346;2022-09-09T10:16:58;97855.61;;;23.39;44.11
71996;BME280;59862;47.732;7.346;2022-09-09T10:19:35;97859.52;;;22.66;46.27
71996;BME280;59862;47.732;7.346;2022-09-09T10:22:26;97858.77;;;21.95;48.19
71996;BME280;59862;47.732;7.346;2022-09-09T10:25:14;97860.74;;;21.60;49.14
71996;BME280;59862;47.732;7.346;2022-09-09T10:31:08;97868.49;;;20.87;50.94
71996;BME280;59862;47.732;7.346;2022-09-09T10:36:21;97855.89;;;20.53;52.22
71996;BME280;59862;47.732;7.346;2022-09-09T10:39:03;97847.67;;;20.73;51.42
71996;BME280;59862;47.732;7.346;2022-09-09T10:41:51;97857.88;;;20.72;52.25
71996;BME280;59862;47.732;7.346;2022-09-09T10:44:17;97852.66;;;21.65;50.87
71996;BME280;59862;47.732;7.346;2022-09-09T10:55:14;97867.05;;;24.17;43.02
71996;BME280;59862;47.732;7.346;2022-09-09T10:57:43;97847.28;;;24.74;41.72
71996;BME280;59862;47.732;7.346;2022-09-09T11:00:42;97852.45;;;23.65;43.04
71996;BME280;59862;47.732;7.346;2022-09-09T11:03:00;97853.28;;;22.90;44.96
71996;BME280;59862;47.732;7.346;2022-09-09T11:05:33;97850.20;;;22.06;45.98
71996;BME280;59862;47.732;7.346;2022-09-09T11:08:05;97841.97;;;21.95;45.40
71996;BME280;59862;47.732;7.346;2022-09-09T11:16:00;97839.08;;;21.52;46.27
71996;BME280;59862;47.732;7.346;2022-09-09T11:18:29;97862.78;;;21.94;46.44
71996;BME280;59862;47.732;7.346;2022-09-09T11:21:00;97847.33;;;22.44;44.70
71996;BME280;59862;47.732;7.346;2022-09-09T11:23:41;97848.28;;;22.14;45.41
71996;BME280;59862;47.732;7.346;2022-09-09T11:26:12;97839.98;;;22.94;44.49
71996;BME280;59862;47.732;7.346;2022-09-09T11:29:11;97836.02;;;25.03;40.77
71996;BME280;59862;47.732;7.346;2022-09-09T11:31:51;97838.40;;;24.67;40.41
71996;BME280;59862;47.732;7.346;2022-09-09T11:34:39;97855.36;;;23.69;42.67
71996;BME280;59862;47.732;7.346;2022-09-09T11:37:31;97854.53;;;22.65;43.84
71996;BME280;59862;47.732;7.346;2022-09-09T11:42:34;97846.39;;;25.39;39.68
71996;BME280;59862;47.732;7.346;2022-09-09T11:45:32;97846.28;;;25.55;38.64
71996;BME280;59862;47.732;7.346;2022-09-09T11:47:53;97847.68;;;25.09;39.23
71996;BME280;59862;47.732;7.346;2022-09-09T11:53:02;97855.08;;;24.04;42.28
71996;BME280;59862;47.732;7.346;2022-09-09T11:55:30;97842.48;;;23.08;42.43
71996;BME280;59862;47.732;7.346;2022-09-09T11:58:14;97850.61;;;21.93;44.34
71996;BME280;59862;47.732;7.346;2022-09-09T12:00:40;97840.80;;;21.69;45.09
71996;BME280;59862;47.732;7.346;2022-09-09T12:03:47;97849.55;;;21.60;46.59
71996;BME280;59862;47.732;7.346;2022-09-09T12:07:01;97852.00;;;21.81;46.62
71996;BME280;59862;47.732;7.346;2022-09-09T12:08:52;97860.86;;;22.38;45.99
71996;BME280;59862;47.732;7.346;2022-09-09T12:11:30;97859.09;;;22.67;46.70
71996;BME280;59862;47.732;7.346;2022-09-09T12:13:59;97855.88;;;23.97;43.59
71996;BME280;59862;47.732;7.346;2022-09-09T12:16:35;97856.43;;;26.04;38.70
71996;BME280;59862;47.732;7.346;2022-09-09T12:19:27;97863.08;;;26.74;37.27
71996;BME280;59862;47.732;7.346;2022-09-09T12:24:16;97860.56;;;29.59;31.57
71996;BME280;59862;47.732;7.346;2022-09-09T12:26:43;97864.22;;;29.51;31.15
71996;BME280;59862;47.732;7.346;2022-09-09T12:32:19;97860.63;;;26.46;36.44
71996;BME280;59862;47.732;7.346;2022-09-09T12:34:44;97871.88;;;24.16;41.25
71996;BME280;59862;47.732;7.346;2022-09-09T12:37:16;97915.55;;;20.93;55.03
71996;BME280;59862;47.732;7.346;2022-09-09T12:39:49;97899.47;;;18.96;62.07
71996;BME280;59862;47.732;7.346;2022-09-09T12:42:19;97889.35;;;18.87;64.33
71996;BME280;59862;47.732;7.346;2022-09-09T12:44:56;97867.36;;;20.63;62.46
71996;BME280;59862;47.732;7.346;2022-09-09T12:47:29;97861.05;;;23.58;54.26
71996;BME280;59862;47.732;7.346;2022-09-09T12:49:55;97866.25;;;24.70;53.65
71996;BME280;59862;47.732;7.346;2022-09-09T12:52:32;97858.72;;;26.13;46.07
71996;BME280;59862;47.732;7.346;2022-09-09T12:55:00;97859.14;;;26.72;44.44
71996;BME280;59862;47.732;7.346;2022-09-09T12:57:30;97840.08;;;27.55;42.14
71996;BME280;59862;47.732;7.346;2022-09-09T13:00:03;97848.25;;;28.97;41.31
71996;BME280;59862;47.732;7.346;2022-09-09T13:02:26;97840.34;;;29.20;39.23
71996;BME280;59862;47.732;7.346;2022-09-09T13:05:05;97839.83;;;29.49;38.75
71996;BME280;59862;47.732;7.346;2022-09-09T13:07:25;97842.44;;;30.75;35.53
71996;BME280;59862;47.732;7.346;2022-09-09T13:09:52;97836.30;;;31.40;34.85
71996;BME280;59862;47.732;7.346;2022-09-09T13:12:19;97837.23;;;31.96;36.16
71996;BME280;59862;47.732;7.346;2022-09-09T13:14:55;97837.28;;;29.55;36.51
71996;BME280;59862;47.732;7.346;2022-09-09T13:17:26;97829.05;;;27.79;34.52
71996;BME280;59862;47.732;7.346;2022-09-09T13:19:58;97818.95;;;29.14;33.59
71996;BME280;59862;47.732;7.346;2022-09-09T13:22:36;97818.37;;;28.78;33.13
71996;BME280;59862;47.732;7.346;2022-09-09T13:25:17;97814.57;;;29.04;32.59
71996;BME280;59862;47.732;7.346;2022-09-09T13:27:41;97811.32;;;29.52;31.06
71996;BME280;59862;47.732;7.346;2022-09-09T13:30:24;97823.64;;;30.58;29.79
71996;BME280;59862;47.732;7.346;2022-09-09T13:35:55;97803.70;;;30.24;29.13
71996;BME280;59862;47.732;7.346;2022-09-09T13:38:24;97796.86;;;27.41;33.00
71996;BME280;59862;47.732;7.346;2022-09-09T13:41:08;97804.84;;;25.99;38.02
71996;BME280;59862;47.732;7.346;2022-09-09T13:43:41;97799.70;;;25.46;38.21
71996;BME280;59862;47.732;7.346;2022-09-09T13:49:01;97794.34;;;24.11;39.91
71996;BME280;59862;47.732;7.346;2022-09-09T13:54:00;97791.84;;;26.88;36.52
71996;BME280;59862;47.732;7.346;2022-09-09T13:56:28;97795.28;;;27.09;36.23
71996;BME280;59862;47.732;7.346;2022-09-09T13:58:55;97797.45;;;26.83;36.62
71996;BME280;59862;47.732;7.346;2022-09-09T14:01:24;97788.19;;;28.84;34.08
71996;BME280;59862;47.732;7.346;2022-09-09T14:03:51;97800.83;;;30.29;32.03
71996;BME280;59862;47.732;7.346;2022-09-09T14:06:20;97806.72;;;31.32;30.28
71996;BME280;59862;47.732;7.346;2022-09-09T14:08:49;97806.80;;;32.23;28.98
71996;BME280;59862;47.732;7.346;2022-09-09T14:11:18;97814.61;;;31.33;29.52
71996;BME280;59862;47.732;7.346;2022-09-09T14:13:48;97804.63;;;28.03;33.12
71996;BME280;59862;47.732;7.346;2022-09-09T14:16:19;97803.38;;;25.94;38.39
71996;BME280;59862;47.732;7.346;2022-09-09T14:18:48;97799.34;;;25.19;40.40
71996;BME280;59862;47.732;7.346;2022-09-09T14:21:15;97801.00;;;26.74;38.82
71996;BME280;59862;47.732;7.346;2022-09-09T14:23:43;97800.30;;;27.76;35.47
71996;BME280;59862;47.732;7.346;2022-09-09T14:26:11;97803.48;;;26.94;36.61
71996;BME280;59862;47.732;7.346;2022-09-09T14:28:39;97807.31;;;26.61;38.09
71996;BME280;59862;47.732;7.346;2022-09-09T14:31:07;97801.52;;;24.86;39.91
71996;BME280;59862;47.732;7.346;2022-09-09T14:33:36;97802.53;;;23.81;42.40
71996;BME280;59862;47.732;7.346;2022-09-09T14:36:04;97802.94;;;23.47;43.86
71996;BME280;59862;47.732;7.346;2022-09-09T14:38:34;97797.23;;;23.50;44.52
71996;BME280;59862;47.732;7.346;2022-09-09T14:41:03;97796.29;;;23.13;45.16
71996;BME280;59862;47.732;7.346;2022-09-09T14:43:31;97786.39;;;22.49;45.15
71996;BME280;59862;47.732;7.346;2022-09-09T14:46:06;97785.20;;;22.38;47.29
71996;BME280;59862;47.732;7.346;2022-09-09T14:48:35;97789.39;;;22.18;47.14
71996;BME280;59862;47.732;7.346;2022-09-09T14:51:07;97772.56;;;22.30;46.82
71996;BME280;59862;47.732;7.346;2022-09-09T14:53:36;97770.63;;;22.46;46.52
71996;BME280;59862;47.732;7.346;2022-09-09T14:56:12;97775.13;;;22.09;46.79
71996;BME280;59862;47.732;7.346;2022-09-09T14:58:37;97775.38;;;22.06;46.51
71996;BME280;59862;47.732;7.346;2022-09-09T15:01:06;97770.03;;;22.04;46.75